Time;durP1;ratioP1;P1;durP2;ratioP2;P2;SDS_P1;SDS_P2;PMS_P1;PMS_P2;Temp;Humidity;BMP_temperature;BMP_pressure;BME280_temperature;BME280_humidity;BME280_pressure;Samples;Min_cycle;Max_cycle;Signal;HPM_P1;HPM_P2
2022/10/21 03:58:24;;;;;;;17.05;11.00;;;;;;;7.33;76.17;101309.56;5605739;31;82118;-55
2022/10/21 04:01:27;;;;;;;18.75;11.35;;;;;;;7.33;76.17;101309.56;5583869;32;34095;-55
2022/10/21 04:04:29;;;;;;;17.50;11.80;;;;;;;6.80;77.18;101298.03;5584081;32;33597;-55
2022/10/21 04:07:31;;;;;;;17.37;10.98;;;;;;;6.93;76.58;101304.97;5583923;31;33588;-55
2022/10/21 04:10:34;;;;;;;19.60;10.50;;;;;;;6.91;76.63;101304.41;5583675;32;34172;-56
2022/10/21 04:13:36;;;;;;;16.67;11.15;;;;;;;6.98;76.33;101298.94;5583757;31;33664;-55
2022/10/21 04:16:38;;;;;;;15.40;11.63;;;;;;;7.05;76.15;101299.62;5583677;31;34300;-55
2022/10/21 04:19:40;;;;;;;16.02;10.95;;;;;;;6.93;76.26;101291.66;5583763;31;33625;-55
2022/10/21 04:22:43;;;;;;;14.82;11.70;;;;;;;7.06;76.22;101290.59;5583619;31;33535;-56
2022/10/21 04:25:45;;;;;;;16.60;11.73;;;;;;;7.05;75.93;101289.78;5583761;31;33543;-55
2022/10/21 04:28:48;;;;;;;17.10;12.65;;;;;;;6.96;76.16;101296.53;5571117;32;33540;-56
2022/10/21 04:31:50;;;;;;;17.50;12.40;;;;;;;7.05;76.19;101294.28;5563901;32;33811;-55
2022/10/21 04:34:52;;;;;;;20.55;13.62;;;;;;;7.12;76.09;101288.84;5563840;32;34319;-56
2022/10/21 04:37:54;;;;;;;22.42;13.18;;;;;;;7.07;76.62;101287.69;5563611;32;34241;-55
2022/10/21 04:40:58;;;;;;;15.52;12.20;;;;;;;7.10;76.58;101288.28;5569635;32;33698;-56
2022/10/21 04:44:01;;;;;;;16.98;12.23;;;;;;;7.11;76.25;101279.22;5583424;31;33685;-56
2022/10/21 04:47:04;;;;;;;25.37;13.50;;;;;;;7.04;76.82;101271.34;5578402;32;33695;-56
2022/10/21 04:50:06;;;;;;;16.45;12.88;;;;;;;7.06;76.69;101258.59;5583605;32;34421;-56
2022/10/21 04:53:09;;;;;;;19.27;12.68;;;;;;;7.09;76.42;101265.34;5582901;32;34278;-56
2022/10/21 04:56:11;;;;;;;18.00;13.60;;;;;;;7.08;76.52;101253.84;5580378;32;34279;-56
2022/10/21 04:59:13;;;;;;;20.10;13.73;;;;;;;7.09;76.44;101252.00;5581869;31;33645;-55
2022/10/21 05:02:15;;;;;;;18.00;13.00;;;;;;;7.10;76.60;101237.63;5576350;31;33691;-55
2022/10/21 05:05:21;;;;;;;33.53;14.02;;;;;;;7.18;76.05;101248.69;5582721;31;33947;-55
2022/10/21 05:08:23;;;;;;;17.23;12.40;;;;;;;7.10;76.85;101258.94;5569258;31;33631;-55
2022/10/21 05:11:26;;;;;;;27.25;15.32;;;;;;;7.19;76.30;101262.88;5567458;32;33630;-56
2022/10/21 05:14:28;;;;;;;20.77;14.77;;;;;;;7.11;78.42;101256.03;5567190;32;34289;-56
2022/10/21 05:17:30;;;;;;;21.60;12.98;;;;;;;7.15;77.12;101265.19;5569493;32;34349;-55
2022/10/21 05:20:32;;;;;;;22.02;13.93;;;;;;;7.21;76.92;101263.44;5567261;32;34138;-56
2022/10/21 05:23:35;;;;;;;20.33;13.48;;;;;;;7.32;76.50;101259.09;5569161;32;33565;-56
2022/10/21 05:26:37;;;;;;;20.42;13.15;;;;;;;7.24;77.04;101252.28;5562967;32;33622;-56
2022/10/21 05:29:39;;;;;;;17.85;13.68;;;;;;;7.30;76.62;101254.00;5567533;32;33654;-55
2022/10/21 05:32:41;;;;;;;26.87;13.48;;;;;;;7.27;76.45;101262.50;5566698;32;33783;-57
2022/10/21 05:35:43;;;;;;;20.77;13.15;;;;;;;7.32;76.60;101265.28;5568921;32;33644;-57
2022/10/21 05:38:46;;;;;;;22.23;13.18;;;;;;;7.30;76.93;101254.00;5560999;32;33206;-56
2022/10/21 05:41:48;;;;;;;19.15;13.62;;;;;;;7.54;75.73;101254.75;5566847;32;34381;-56
2022/10/21 05:44:50;;;;;;;16.90;13.27;;;;;;;7.52;76.58;101270.19;5567731;32;33691;-56
2022/10/21 05:47:52;;;;;;;18.45;13.93;;;;;;;7.58;76.28;101284.41;5566203;31;33911;-56
2022/10/21 05:50:55;;;;;;;27.00;12.52;;;;;;;7.47;76.82;101278.09;5559752;32;33650;-56
2022/10/21 05:53:57;;;;;;;29.67;12.85;;;;;;;7.59;76.94;101267.37;5558526;32;34021;-56
2022/10/21 05:57:01;;;;;;;21.37;12.90;;;;;;;7.70;76.86;101250.50;5567872;32;33315;-55
2022/10/21 06:00:05;;;;;;;20.37;12.52;;;;;;;7.86;76.18;101239.03;5567639;32;34441;-56
2022/10/21 06:03:07;;;;;;;24.52;13.20;;;;;;;7.91;75.89;101254.31;5567834;32;34481;-56
2022/10/21 06:06:10;;;;;;;27.73;13.38;;;;;;;7.88;76.78;101266.31;5568487;32;34189;-56
2022/10/21 06:09:12;;;;;;;27.15;13.70;;;;;;;7.82;76.45;101277.94;5569036;32;33483;-56
2022/10/21 06:12:14;;;;;;;22.40;13.68;;;;;;;8.05;75.19;101297.59;5564812;32;34264;-56
2022/10/21 06:15:16;;;;;;;30.85;13.73;;;;;;;7.97;74.96;101296.09;5567662;32;34243;-56
2022/10/21 06:18:19;;;;;;;17.80;12.50;;;;;;;8.09;74.65;101296.84;5567213;32;34399;-56
2022/10/21 06:21:21;;;;;;;24.55;13.65;;;;;;;8.20;74.93;101295.97;5565272;32;33905;-56
2022/10/21 06:24:24;;;;;;;19.60;13.38;;;;;;;8.20;75.91;101303.16;5566304;32;33577;-56
2022/10/21 06:27:26;;;;;;;21.02;13.23;;;;;;;8.34;73.98;101299.13;5567401;32;33804;-55
2022/10/21 06:30:28;;;;;;;21.37;12.60;;;;;;;8.42;73.40;101298.75;5565847;32;33636;-55
2022/10/21 06:33:31;;;;;;;17.52;12.48;;;;;;;8.56;72.55;101290.41;5566273;32;32047;-56
2022/10/21 06:36:36;;;;;;;18.23;11.88;;;;;;;8.60;75.08;101294.22;5567269;32;33720;-55
2022/10/21 06:39:38;;;;;;;19.50;12.48;;;;;;;8.64;73.91;101303.34;5567620;32;33932;-56
2022/10/21 06:42:41;;;;;;;16.27;12.13;;;;;;;8.71;72.66;101298.66;5566716;32;33714;-55
2022/10/21 06:45:43;;;;;;;18.70;11.80;;;;;;;8.66;70.76;101306.59;5567498;32;32811;-56
2022/10/21 06:48:46;;;;;;;22.37;17.27;;;;;;;8.91;67.24;101296.28;5567374;32;34227;-56
2022/10/21 06:51:48;;;;;;;27.52;15.80;;;;;;;9.11;67.23;101313.66;5568343;32;33588;-57
2022/10/21 06:54:50;;;;;;;34.10;14.68;;;;;;;9.23;66.61;101300.97;5566794;32;34415;-56
2022/10/21 06:57:52;;;;;;;16.92;11.38;;;;;;;9.34;66.39;101289.34;5549040;32;34293;-56
2022/10/21 07:00:54;;;;;;;15.38;10.93;;;;;;;9.36;66.04;101294.44;5556109;32;33562;-56
2022/10/21 07:03:56;;;;;;;25.83;15.80;;;;;;;9.35;65.71;101288.28;5567160;32;33480;-55
2022/10/21 07:06:59;;;;;;;16.48;10.73;;;;;;;9.41;64.23;101278.44;5568407;32;33641;-56
2022/10/21 07:10:01;;;;;;;17.12;10.18;;;;;;;9.58;62.81;101273.81;5566937;32;34046;-56
2022/10/21 07:13:03;;;;;;;21.60;9.18;;;;;;;9.61;63.04;101278.69;5567644;32;33713;-56
2022/10/21 07:16:23;;;;;;;12.98;8.48;;;;;;;9.53;62.87;101283.66;5568381;32;33655;-55
2022/10/21 07:19:25;;;;;;;11.05;7.97;;;;;;;9.53;63.83;101291.69;5566297;32;34332;-56
2022/10/21 07:22:27;;;;;;;12.07;7.82;;;;;;;9.71;61.46;101287.87;5562063;32;33635;-56
2022/10/21 07:25:30;;;;;;;13.07;8.20;;;;;;;9.74;61.32;101296.22;5567790;32;33665;-56
2022/10/21 07:28:32;;;;;;;16.60;8.93;;;;;;;9.84;60.36;101292.84;5565036;32;33667;-56
2022/10/21 07:31:36;;;;;;;12.57;9.30;;;;;;;9.91;61.03;101289.97;5564254;32;33201;-56
2022/10/21 07:34:38;;;;;;;12.60;8.20;;;;;;;9.95;60.77;101297.22;5567713;32;33577;-56
2022/10/21 07:37:41;;;;;;;13.77;8.65;;;;;;;9.93;59.58;101307.38;5563594;32;33180;-56
2022/10/21 07:40:43;;;;;;;10.68;7.70;;;;;;;9.95;59.85;101299.91;5550879;32;33772;-56
2022/10/21 07:43:47;;;;;;;15.38;8.02;;;;;;;10.02;59.60;101308.53;5567763;32;33583;-56
2022/10/21 07:46:50;;;;;;;13.15;9.00;;;;;;;10.16;58.97;101295.53;5559855;32;34059;-56
2022/10/21 07:49:52;;;;;;;12.73;8.10;;;;;;;10.09;60.45;101294.94;5556466;32;33700;-56
2022/10/21 07:52:54;;;;;;;12.05;7.95;;;;;;;10.18;59.24;101292.59;5551850;32;33904;-55
2022/10/21 07:56:11;;;;;;;11.60;8.00;;;;;;;10.14;58.51;101280.78;5563686;32;33758;-56
2022/10/21 07:59:15;;;;;;;;;;;;;;;10.14;60.32;101272.75;5568180;32;33322;-55
2022/10/21 08:02:17;;;;;;;14.87;8.73;;;;;;;10.25;59.19;101277.13;5567872;32;33947;-56
2022/10/21 08:05:21;;;;;;;15.18;9.65;;;;;;;10.15;59.69;101280.53;5566386;32;34330;-55
2022/10/21 08:08:24;;;;;;;13.77;9.38;;;;;;;10.27;59.35;101270.47;5548136;32;34066;-55
2022/10/21 08:11:31;;;;;;;16.60;8.93;;;;;;;10.25;60.27;101256.50;5559031;32;33689;-56
2022/10/21 08:14:33;;;;;;;12.15;9.25;;;;;;;10.32;59.02;101250.94;5567388;32;34293;-56
2022/10/21 08:17:35;;;;;;;15.63;9.48;;;;;;;10.32;58.22;101257.09;5567592;32;33691;-55
2022/10/21 08:20:42;;;;;;;16.20;9.23;;;;;;;10.30;59.11;101253.09;5566032;32;33354;-56
2022/10/21 08:23:45;;;;;;;14.60;10.00;;;;;;;10.46;58.23;101246.78;5567299;32;33606;-56
2022/10/21 08:26:47;;;;;;;16.95;9.82;;;;;;;10.43;59.45;101244.59;5567002;32;33238;-55
2022/10/21 08:29:49;;;;;;;12.27;9.05;;;;;;;10.41;59.30;101236.00;5549487;32;33639;-55
2022/10/21 08:32:51;;;;;;;13.30;8.38;;;;;;;10.49;58.67;101238.19;5564702;32;33675;-55
2022/10/21 08:35:53;;;;;;;14.10;9.45;;;;;;;10.62;57.81;101233.44;5567053;32;33599;-55
2022/10/21 08:38:57;;;;;;;15.80;9.52;;;;;;;10.68;58.32;101229.72;5563747;32;34254;-56
2022/10/21 08:42:16;;;;;;;14.85;8.60;;;;;;;10.81;58.21;101237.31;5565428;31;34428;-56
2022/10/21 08:45:27;;;;;;;13.05;8.13;;;;;;;10.85;57.39;101237.59;5563343;31;33757;-55
2022/10/21 08:48:38;;;;;;;13.77;7.68;;;;;;;10.97;58.17;101224.78;5560130;32;35047;-55
2022/10/21 08:51:52;;;;;;;11.82;7.20;;;;;;;11.20;56.87;101208.22;5567176;32;33294;-56
2022/10/21 08:55:01;;;;;;;14.05;6.40;;;;;;;11.22;56.67;101210.63;5566099;32;33822;-56
2022/10/21 08:58:04;;;;;;;11.73;6.72;;;;;;;11.37;56.04;101204.53;5566419;32;33900;-56
2022/10/21 09:01:31;;;;;;;12.27;5.93;;;;;;;11.40;56.13;101193.25;5564774;32;34430;-56
2022/10/21 09:04:51;;;;;;;12.43;6.57;;;;;;;11.60;55.63;101195.97;5559257;32;34337;-56
2022/10/21 09:08:04;;;;;;;15.10;7.40;;;;;;;11.59;55.58;101185.47;5568572;32;34408;-55
2022/10/21 09:11:27;;;;;;;14.85;7.30;;;;;;;11.52;57.21;101194.62;5566035;32;33673;-56
2022/10/21 09:14:35;;;;;;;11.68;6.70;;;;;;;11.58;55.63;101183.88;5565962;32;33736;-55
2022/10/21 09:17:56;;;;;;;15.55;6.87;;;;;;;11.58;56.25;101184.69;5565937;32;33637;-56
2022/10/21 09:21:11;;;;;;;27.87;7.10;;;;;;;11.77;56.67;101179.59;5563567;31;33516;-56
2022/10/21 09:24:26;;;;;;;14.37;6.57;;;;;;;11.70;55.81;101177.19;5566707;32;33172;-56
2022/10/21 09:27:30;;;;;;;14.95;6.60;;;;;;;11.82;54.88;101176.91;5566855;32;34228;-56
2022/10/21 09:30:53;;;;;;;11.68;5.30;;;;;;;11.94;54.65;101165.91;5565935;32;34380;-56
2022/10/21 09:34:01;;;;;;;8.80;5.37;;;;;;;12.08;53.20;101164.28;5564042;32;33677;-56
2022/10/21 09:37:06;;;;;;;10.43;5.40;;;;;;;11.99;53.71;101171.31;5566568;31;33788;-56
2022/10/21 09:40:15;;;;;;;8.60;5.10;;;;;;;12.04;53.56;101163.22;5565804;32;34187;-56
2022/10/21 09:43:23;;;;;;;19.15;5.70;;;;;;;12.16;54.08;101158.38;5567572;32;33147;-55
2022/10/21 09:46:26;;;;;;;9.70;5.68;;;;;;;12.28;52.73;101149.19;5567562;32;33807;-56
2022/10/21 09:49:35;;;;;;;9.85;5.70;;;;;;;12.34;52.84;101129.28;5567343;32;33801;-56
2022/10/21 09:53:03;;;;;;;9.82;5.47;;;;;;;12.38;52.35;101141.09;5566674;32;33487;-56
2022/10/21 09:56:17;;;;;;;9.13;6.03;;;;;;;12.38;53.26;101130.34;5568681;32;34017;-56
2022/10/21 09:59:22;;;;;;;15.55;6.72;;;;;;;12.32;52.95;101129.59;5566646;32;34382;-56
2022/10/21 10:02:32;;;;;;;12.68;6.62;;;;;;;12.42;52.40;101123.38;5565564;32;34451;-56
2022/10/21 10:05:48;;;;;;;16.80;6.57;;;;;;;12.38;53.53;101131.19;5565642;32;33279;-56
2022/10/21 10:08:50;;;;;;;11.27;5.65;;;;;;;12.38;52.21;101127.66;5567492;32;33618;-56
2022/10/21 10:12:05;;;;;;;14.73;6.32;;;;;;;12.48;52.63;101111.50;5567648;32;33588;-56
2022/10/21 10:15:24;;;;;;;8.73;5.95;;;;;;;12.62;51.02;101117.09;5567638;32;34456;-55
2022/10/21 10:18:32;;;;;;;18.12;5.82;;;;;;;12.76;49.58;101099.28;5563679;32;33633;-57
2022/10/21 10:21:35;;;;;;;13.98;5.60;;;;;;;12.70;51.05;101103.88;5562228;32;32902;-56
2022/10/21 10:24:39;;;;;;;10.57;6.00;;;;;;;12.75;52.27;101091.47;5564342;32;33268;-56
2022/10/21 10:27:51;;;;;;;9.27;5.53;;;;;;;12.66;50.97;101085.88;5560787;32;33785;-56
2022/10/21 10:30:55;;;;;;;12.07;5.90;;;;;;;12.79;51.77;101087.16;5550078;32;33802;-55
2022/10/21 10:34:03;;;;;;;8.90;5.62;;;;;;;12.88;52.15;101083.63;5565941;32;33641;-56
2022/10/21 10:37:14;;;;;;;10.43;5.62;;;;;;;12.96;51.52;101079.53;5560807;32;34392;-56
2022/10/21 10:40:23;;;;;;;14.00;5.53;;;;;;;13.08;51.20;101081.88;5557515;32;34263;-56
2022/10/21 10:43:31;;;;;;;10.48;5.78;;;;;;;13.07;50.58;101064.09;5558177;32;34325;-56
2022/10/21 10:46:35;;;;;;;8.38;5.60;;;;;;;13.20;50.25;101060.78;5559887;32;34312;-57
2022/10/21 10:49:41;;;;;;;11.35;6.03;;;;;;;13.13;50.71;101058.41;5564642;32;36149;-56
2022/10/21 10:52:43;;;;;;;10.55;5.35;;;;;;;13.27;50.20;101047.03;5560512;32;33599;-56
2022/10/21 10:55:50;;;;;;;7.68;5.20;;;;;;;13.33;49.80;101049.41;5567351;32;33719;-56
2022/10/21 10:59:07;;;;;;;10.07;5.10;;;;;;;13.32;50.79;101047.00;5566642;32;34053;-56
2022/10/21 11:02:10;;;;;;;7.45;4.93;;;;;;;13.32;50.86;101028.16;5568082;32;33672;-56
2022/10/21 11:05:13;;;;;;;10.35;5.37;;;;;;;13.40;48.57;101016.75;5566986;32;33338;-56
2022/10/21 11:08:24;;;;;;;11.43;5.12;;;;;;;13.43;49.59;101018.09;5568386;32;33827;-55
2022/10/21 11:11:35;;;;;;;8.23;5.12;;;;;;;13.49;48.55;101025.84;5561316;32;34357;-56
2022/10/21 11:14:37;;;;;;;8.95;4.68;;;;;;;13.51;48.15;101023.66;5557112;32;33751;-56
2022/10/21 11:17:52;;;;;;;8.68;4.60;;;;;;;13.48;48.08;101013.47;5567335;32;33866;-56
2022/10/21 11:21:22;;;;;;;7.40;4.57;;;;;;;13.44;49.21;101012.41;5566683;32;33644;-56
2022/10/21 11:24:55;;;;;;;8.13;4.37;;;;;;;13.38;48.17;101003.59;5567026;32;34360;-56
2022/10/21 11:28:13;;;;;;;8.35;4.28;;;;;;;13.33;49.35;100987.47;5564239;32;33214;-56
2022/10/21 11:31:51;;;;;;;7.85;4.37;;;;;;;13.29;49.32;100997.19;5565184;32;33669;-55
2022/10/21 11:35:40;;;;;;;10.82;4.35;;;;;;;13.48;48.00;100994.59;5567234;32;33543;-56
2022/10/21 11:39:12;;;;;;;11.43;4.37;;;;;;;13.30;47.44;100985.34;5565469;32;33639;-56
2022/10/21 11:42:37;;;;;;;7.75;4.00;;;;;;;13.35;48.24;100971.84;5566767;32;33636;-56
2022/10/21 11:45:54;;;;;;;9.88;4.12;;;;;;;13.29;47.99;100953.31;5567318;32;33734;-55
2022/10/21 11:49:44;;;;;;;8.40;4.37;;;;;;;13.32;47.36;100953.56;5567128;32;33759;-56
2022/10/21 11:53:13;;;;;;;8.32;4.20;;;;;;;13.37;46.59;100968.84;5557711;31;34246;-56
2022/10/21 11:56:24;;;;;;;10.60;4.43;;;;;;;13.34;47.10;100954.09;5557409;32;33660;-56
2022/10/21 11:59:41;;;;;;;8.63;4.40;;;;;;;13.43;48.10;100956.13;5556926;32;33895;-56
2022/10/21 12:03:12;;;;;;;11.20;4.25;;;;;;;13.33;49.13;100952.44;5557228;32;33631;-56
2022/10/21 12:07:05;;;;;;;16.55;4.25;;;;;;;13.29;48.35;100945.25;5559089;32;33649;-56
2022/10/21 12:10:33;;;;;;;9.85;3.90;;;;;;;13.31;47.90;100932.28;5493206;32;33422;-56
2022/10/21 12:13:51;;;;;;;10.63;4.50;;;;;;;13.39;48.18;100937.06;5556194;32;33646;-56
2022/10/21 12:16:56;;;;;;;8.63;4.37;;;;;;;13.44;47.94;100923.53;5555548;32;33799;-56
2022/10/21 12:20:06;;;;;;;9.38;4.65;;;;;;;13.57;46.62;100922.03;5557023;32;35096;-57
2022/10/21 12:23:12;;;;;;;17.30;4.25;;;;;;;13.54;46.24;100925.31;5560245;32;33963;-56
2022/10/21 12:26:33;;;;;;;8.48;4.32;;;;;;;13.54;46.13;100920.75;5560276;32;33612;-56
2022/10/21 12:30:03;;;;;;;7.03;4.20;;;;;;;13.48;47.00;100923.78;5553631;32;33661;-56
2022/10/21 12:33:23;;;;;;;11.32;4.95;;;;;;;13.44;47.18;100925.41;5550898;32;33755;-55
2022/10/21 12:36:39;;;;;;;7.80;4.47;;;;;;;13.40;47.20;100926.00;5566982;32;33877;-56
2022/10/21 12:39:49;;;;;;;;;;;;;;;13.44;46.32;100917.34;5559310;32;33724;-56
2022/10/21 12:43:04;;;;;;;17.90;5.43;;;;;;;13.51;46.68;100902.47;5563579;32;33800;-56
2022/10/21 12:46:09;;;;;;;9.98;4.70;;;;;;;13.51;47.08;100904.31;5567849;32;33610;-56
2022/10/21 12:49:19;;;;;;;8.50;4.45;;;;;;;13.46;47.49;100905.19;5566988;32;34419;-55
2022/10/21 12:52:22;;;;;;;6.30;4.43;;;;;;;13.45;46.82;100900.12;5566849;32;33657;-55
2022/10/21 12:55:26;;;;;;;15.52;4.53;;;;;;;13.40;47.36;100900.94;5568172;32;33756;-56
2022/10/21 12:58:31;;;;;;;9.55;4.53;;;;;;;13.50;46.96;100881.97;5568050;32;33682;-56
2022/10/21 13:02:05;;;;;;;10.60;4.60;;;;;;;13.45;47.50;100887.44;5568938;32;33667;-55
2022/10/21 13:05:07;;;;;;;6.70;4.25;;;;;;;13.52;47.35;100876.31;5567382;32;33004;-56
2022/10/21 13:08:18;;;;;;;10.30;4.20;;;;;;;13.55;46.68;100873.84;5550748;32;34258;-56
2022/10/21 13:11:37;;;;;;;7.75;4.40;;;;;;;13.54;46.83;100877.66;5554032;32;33791;-56
2022/10/21 13:14:40;;;;;;;10.07;4.15;;;;;;;13.62;48.10;100876.19;5569472;32;33778;-56
2022/10/21 13:17:56;;;;;;;9.38;4.20;;;;;;;13.63;47.29;100880.50;5569968;32;33628;-56
2022/10/21 13:20:58;;;;;;;8.85;3.92;;;;;;;13.60;48.86;100875.69;5567511;32;33594;-56
2022/10/21 13:24:10;;;;;;;7.72;3.92;;;;;;;13.63;46.37;100870.50;5568430;32;33696;-56
2022/10/21 13:27:30;;;;;;;12.68;4.30;;;;;;;13.63;46.07;100869.72;5566448;32;34327;-56
2022/10/21 13:30:38;;;;;;;8.18;4.22;;;;;;;13.52;47.08;100855.56;5561355;32;33640;-56
2022/10/21 13:33:51;;;;;;;7.53;4.12;;;;;;;13.61;46.78;100855.75;5564070;32;34499;-57
2022/10/21 13:36:55;;;;;;;9.48;3.60;;;;;;;13.49;46.81;100850.75;5555743;32;33699;-56
2022/10/21 13:40:01;;;;;;;13.18;3.85;;;;;;;13.51;47.48;100847.75;5567405;32;34473;-56
2022/10/21 13:43:15;;;;;;;9.93;3.95;;;;;;;13.59;47.34;100841.75;5565225;32;33689;-56
2022/10/21 13:46:23;;;;;;;11.00;4.05;;;;;;;13.60;47.48;100846.03;5549946;32;33284;-56
2022/10/21 13:49:28;;;;;;;8.80;4.30;;;;;;;13.70;47.48;100839.72;5565547;32;34316;-57
2022/10/21 13:52:30;;;;;;;15.57;4.40;;;;;;;13.67;47.96;100835.72;5568045;32;34474;-56
2022/10/21 13:55:32;;;;;;;18.77;4.32;;;;;;;13.77;46.96;100837.47;5568751;32;33810;-56
2022/10/21 13:58:38;;;;;;;11.12;4.53;;;;;;;13.76;47.82;100843.97;5569029;32;33708;-56
2022/10/21 14:01:47;;;;;;;18.23;4.40;;;;;;;13.79;47.66;100832.59;5550188;32;33823;-55
2022/10/21 14:04:50;;;;;;;13.68;4.70;;;;;;;13.76;47.58;100822.41;5550316;32;33734;-56
2022/10/21 14:07:52;;;;;;;9.77;4.62;;;;;;;13.80;46.39;100816.13;5569797;32;34381;-56
2022/10/21 14:10:57;;;;;;;8.32;4.12;;;;;;;13.77;47.49;100819.41;5569644;32;34435;-55
2022/10/21 14:14:04;;;;;;;5.95;3.85;;;;;;;13.80;47.33;100813.44;5568163;32;34311;-56
2022/10/21 14:17:14;;;;;;;6.62;4.00;;;;;;;13.85;47.49;100828.75;5569747;32;33661;-56
2022/10/21 14:20:33;;;;;;;12.73;4.20;;;;;;;13.82;46.55;100819.34;5566418;32;33603;-56
2022/10/21 14:23:35;;;;;;;11.35;4.72;;;;;;;13.89;47.20;100818.19;5560438;32;33553;-56
2022/10/21 14:26:44;;;;;;;10.63;4.25;;;;;;;13.81;47.26;100806.19;5558226;32;33599;-56
2022/10/21 14:29:47;;;;;;;11.65;3.92;;;;;;;13.75;47.61;100793.88;5564841;32;34414;-56
2022/10/21 14:32:50;;;;;;;14.60;5.00;;;;;;;13.79;46.91;100795.69;5565769;32;33708;-56
2022/10/21 14:36:13;;;;;;;9.43;4.20;;;;;;;13.76;47.34;100792.75;5562945;32;33737;-56
2022/10/21 14:39:19;;;;;;;12.95;4.43;;;;;;;13.77;48.33;100799.75;5569090;32;33734;-56
2022/10/21 14:42:23;;;;;;;;;;;;;;;13.77;46.90;100799.75;5568004;32;33740;-56
2022/10/21 14:45:46;;;;;;;12.60;4.18;;;;;;;13.77;47.69;100799.75;5569689;32;34672;-56
2022/10/21 14:48:58;;;;;;;8.35;4.30;;;;;;;13.82;48.00;100787.00;5568249;32;34361;-56
2022/10/21 14:52:06;;;;;;;11.35;4.40;;;;;;;13.76;47.70;100787.38;5568892;32;33657;-56
2022/10/21 14:55:13;;;;;;;13.05;4.90;;;;;;;13.72;48.90;100795.25;5569292;32;34416;-55
2022/10/21 14:58:21;;;;;;;;;;;;;;;13.65;49.57;100794.81;5567718;31;33505;-56
2022/10/21 15:01:31;;;;;;;10.05;5.07;;;;;;;13.63;50.42;100792.38;5569345;32;34698;-56
2022/10/21 15:04:52;;;;;;;10.20;4.60;;;;;;;13.62;50.97;100793.50;5569245;32;34376;-56
2022/10/21 15:08:20;;;;;;;10.88;4.90;;;;;;;13.61;51.32;100799.19;5562036;32;33744;-56
2022/10/21 15:11:25;;;;;;;10.13;5.25;;;;;;;13.59;50.92;100785.97;5558482;32;34401;-56
2022/10/21 15:14:30;;;;;;;11.05;5.37;;;;;;;13.58;49.57;100780.91;5568564;32;33792;-56
2022/10/21 15:17:32;;;;;;;7.82;4.62;;;;;;;13.57;49.57;100774.69;5568251;32;33646;-56
2022/10/21 15:20:35;;;;;;;9.85;5.05;;;;;;;13.57;50.38;100773.88;5566966;32;33651;-56
2022/10/21 15:23:58;;;;;;;9.93;5.32;;;;;;;13.51;50.90;100764.28;5568939;32;33752;-56
2022/10/21 15:27:02;;;;;;;9.20;5.35;;;;;;;13.49;51.49;100756.50;5566713;32;32236;-56
2022/10/21 15:30:18;;;;;;;14.60;5.75;;;;;;;13.50;50.69;100763.47;5567735;32;33192;-56
2022/10/21 15:33:21;;;;;;;8.55;5.35;;;;;;;13.45;51.78;100763.56;5567432;32;33775;-55
